SHMÚ 65 rokov / 1954-2019 - Ďakujeme našim partnerom


SHMÚ vydal meteorologické výstrahy na Wind Display warnings

METAR

Aeronautical MET Report METAR

METAR description (Slovak)

18.11.2019 - 04:00 UTC

METAR LZIB 180400Z 11012KT 9999 FEW011 BKN016 11/09 Q1008=
METAR LZKZ 180400Z 31007KT CAVOK 06/06 Q1013=
METAR LZPP 180400Z AUTO 12019KT 9999 BKN057/// OVC069/// 13/08
Q1008=
METAR LZSL 180400Z VRB03KT 9999 BKN030 13/07 Q1012=
METAR LZTT 180400Z VRB02KT 9999 FEW033 OVC043 08/06 Q1013=
METAR LZZI 180400Z 14008KT 090V180 9999 BKN034 14/07 Q1010=

18.11.2019 - 03:30 UTC

METAR LZIB 180330Z 11010KT 9999 FEW011 BKN016 11/09 Q1008=
METAR LZKZ 180330Z VRB01KT CAVOK 04/04 Q1014=
METAR LZPP 180330Z AUTO 12021G38KT 9999 OVC083/// 13/08 Q1008=
METAR LZSL 180330Z VRB02KT 9999 BKN030 13/07 Q1012=
METAR LZTT 180330Z VRB02KT 9999 FEW030 OVC043 08/05 Q1013=
METAR LZZI 180330Z 15007G17KT 110V190 9999 SCT037 13/06 Q1010=

18.11.2019 - 04:00 UTC

METAR LZMC 180400Z 12016G32KT 9999 BKN012 OVC019 11/09
Q1008=
METAR LZPW 180400Z 08003KT CAVOK 04/03 Q1014=

 

 

skok na menu ↑


skok na začiatok stránky ↑